Latest Coastal Weather Observations for Wilsons Promontory

IDT60701

Issued at 11:32 am EDT Friday 19 December 2014 (issued every 10 minutes, with the page automatically refreshed every 10 minutes)

About coastal observations | Map of coastal stations | Coastal observations for TAS | Marine services | Other Formats
Station Details ID: 085096 Name: WILSONS PROMONTORY LIGHTHOUSE Lat: -39.13 Lon: 146.42 Height: 95.0 m
Data from the previous 72 hours. | See also: Recent months at Wilsons Promontory
Date/Time
EDT
Temp

°C
Wind Pressure Rain
since 9am
mm
Weather Cloud Vis
km
Sea
Height
m
Swell
Dir
 
Speed
knots
Gust
knots
hPa Trend Height
m
Period
s
Dir
19/11:30am 14.5 SW 17 27 1015.0 - 0.0 - - - - - - -
19/11:27am 14.0 SW 17 27 1015.0 - 0.0 - - - - - - -
19/11:00am 14.6 SW 20 25 1014.7 - 0.0 - - - - - - -
19/10:30am 14.6 SSW 16 26 1014.6 - 0.0 - - - - - - -
19/10:11am 14.0 SW 16 26 1014.5 - 0.0 - - - - - - -
19/10:00am 14.6 SW 17 25 1014.3 - 0.0 - - - - - - -
19/09:39am 14.2 SW 19 29 1014.0 - 0.0 - - - - - - -
19/09:30am 14.4 SW 21 29 1014.0 - 0.0 - - - - - - -
19/09:00am 14.1 SW 26 32 1013.4 - 3.0 - - - - - - -
19/08:55am 14.3 SW 23 33 1013.6 - 3.0 - - - - - - -
19/08:30am 14.3 SW 27 32 1013.4 - 3.0 - - - - - - -
19/08:00am 14.1 SW 29 34 1012.8 - 3.0 - - - - - - -
19/07:30am 13.6 WSW 27 32 1012.5 - 3.0 - - - - - - -
19/07:17am 13.0 SW 19 31 1012.4 - 3.0 - - - - - - -
19/07:14am 13.1 SW 18 31 1012.3 - 3.0 - - - - - - -
19/07:00am 13.4 WSW 30 34 1012.0 - 3.0 - - - - - - -
19/06:30am 13.2 WSW 26 33 1011.7 - 3.0 - - - - - - -
19/06:10am 13.2 WSW 17 28 1011.8 - 3.0 - - - - - - -
19/06:00am 13.0 W 16 24 1011.7 - 3.0 - - - - - - -
19/05:34am 12.0 W 16 27 1011.9 - 3.0 - - - - - - -
19/05:30am 11.8 W 18 36 1011.7 - 3.0 - - - - - - -
19/05:27am 11.7 W 20 42 1011.6 - 2.8 - - - - - - -
19/05:23am 11.5 WSW 32 42 1011.3 - 2.6 - - - - - - -
19/05:00am 13.3 SW 34 39 1010.6 - 1.8 - - - - - - -
19/04:51am 13.6 WSW 29 39 1010.3 - 1.8 - - - - - - -
19/04:30am 13.8 WSW 29 36 1010.2 - 1.8 - - - - - - -
19/04:00am 13.7 WSW 26 33 1010.3 - 1.8 - - - - - - -
19/03:36am 13.4 W 21 35 1010.3 - 1.8 - - - - - - -
19/03:30am 13.4 WSW 33 38 1010.0 - 1.8 - - - - - - -
19/03:00am 13.9 WSW 27 34 1009.8 - 1.8 - - - - - - -
19/02:30am 13.9 WSW 27 34 1010.0 - 1.8 - - - - - - -
19/02:00am 13.9 W 23 33 1009.9 - 1.8 - - - - - - -
19/01:30am 14.1 W 25 36 1009.9 - 1.8 - - - - - - -
19/01:00am 14.3 W 24 34 1009.8 - 1.8 - - - - - - -
19/12:31am 14.3 WSW 26 36 1009.8 - 1.8 - - - - - - -
19/12:30am 14.3 WSW 27 36 1009.8 - 1.8 - - - - - - -
19/12:07am 14.4 WSW 28 38 1009.6 - 1.8 - - - - - - -
19/12:00am 14.4 WSW 28 35 1009.4 - 1.8 - - - - - - -
 
Date/Time
EDT
Temp

°C
Wind Pressure Rain
since 9am
mm
Weather Cloud Vis
km
Sea
Height
m
Swell
Dir
 
Speed
knots
Gust
knots
hPa Trend Height
m
Period
s
Dir
18/11:33pm 14.5 WSW 28 38 1009.3 - 1.8 - - - - - - -
18/11:30pm 14.7 WSW 27 34 1009.7 - 1.8 - - - - - - -
18/11:16pm 14.5 WSW 34 38 1009.2 - 1.8 - - - - - - -
18/11:03pm 14.5 W 21 31 1009.9 - 1.8 - - - - - - -
18/11:00pm 14.5 W 22 31 1009.7 - 1.8 - - - - - - -
18/10:48pm 14.4 WSW 28 38 1009.4 - 1.8 - - - - - - -
18/10:31pm 14.5 WSW 33 36 1009.1 - 1.8 - - - - - - -
18/10:30pm 14.6 W 21 35 1009.1 - 1.8 - - - - - - -
18/10:24pm 14.7 W 20 30 1009.6 - 1.8 - - - - - - -
18/10:00pm 14.7 W 20 29 1009.2 - 1.8 - - - - - - -
18/09:30pm 14.4 W 20 30 1009.0 - 1.8 - - - - - - -
18/09:03pm 14.0 W 18 28 1009.0 - 1.8 - - - - - - -
18/09:00pm 14.1 W 19 28 1008.8 - 1.8 - - - - - - -
18/08:41pm 14.1 W 21 31 1008.7 - 1.8 - - - - - - -
18/08:30pm 14.0 W 24 33 1008.4 - 1.8 - - - - - - -
18/08:09pm 14.0 W 20 39 1007.6 - 1.8 - - - - - - -
18/08:04pm 14.7 W 18 28 1008.0 - 1.8 - - - - - - -
18/08:00pm 14.6 W 20 29 1008.0 - 1.8 - - - - - - -
18/07:32pm 14.7 W 17 31 1007.8 - 1.8 - - - - - - -
18/07:30pm 14.7 W 17 25 1007.9 - 1.8 - - - - - - -
18/07:15pm 14.2 W 16 26 1007.5 - 1.8 - - - - - - -
18/07:00pm 13.8 W 18 26 1007.2 - 1.8 - - - - - - -
18/06:30pm 13.3 W 21 31 1007.1 - 1.6 - - - - - - -
18/06:01pm 13.6 W 23 36 1006.7 - 0.6 - - - - - - -
18/06:00pm 13.6 W 23 32 1006.7 - 0.4 - - - - - - -
18/05:35pm 14.5 W 22 37 1006.2 - 0.0 - - - - - - -
18/05:30pm 14.9 W 23 31 1006.4 - 0.0 - - - - - - -
18/05:11pm 15.8 W 23 33 1006.0 - 0.0 - - - - - - -
18/05:00pm 16.0 W 19 27 1006.2 - 0.0 - - - - - - -
18/04:30pm 16.2 W 22 28 1005.2 - 0.0 - - - - - - -
18/04:17pm 16.3 WSW 30 40 1004.6 - 0.0 - - - - - - -
18/04:14pm 16.0 WSW 33 40 1004.3 - 0.0 - - - - - - -
18/04:13pm 16.3 W 23 38 1004.5 - 0.0 - - - - - - -
18/04:00pm 17.9 W 19 28 1005.1 - 0.0 - - - - - - -
18/03:31pm 18.0 W 16 26 1004.6 - 0.0 - - - - - - -
18/03:30pm 18.1 W 16 24 1004.6 - 0.0 - - - - - - -
18/03:10pm 18.4 W 18 28 1004.8 - 0.0 - - - - - - -
18/03:00pm 18.3 W 20 28 1004.4 - 0.0 - - - - - - -
18/02:30pm 18.1 W 17 27 1004.7 - 0.0 - - - - - - -
18/02:00pm 16.8 W 22 32 1004.5 - 0.0 - - - - - - -
18/01:30pm 17.2 W 23 34 1004.2 - 0.0 - - - - - - -
18/01:00pm 17.7 W 22 33 1004.3 - 0.0 - - - - - - -
18/12:30pm 17.5 W 23 33 1004.4 - 0.0 - - - - - - -
18/12:00pm 18.4 W 18 35 1003.9 - 0.0 - - - - - - -
18/11:47am 18.0 W 20 30 1004.1 - 0.0 - - - - - - -
18/11:39am 18.6 W 21 30 1003.8 - 0.0 - - - - - - -
18/11:30am 19.5 W 10 19 1003.9 - 0.0 - - - - - - -
18/11:00am 19.8 NW 9 21 1004.0 - 0.0 - - - - - - -
18/10:30am 19.1 WSW 6 13 1004.3 - 0.0 - - - - - - -
18/10:00am 19.0 NNW 7 11 1004.4 - 0.0 - - - - - - -
18/09:30am 18.5 NNE 11 16 1004.4 - 0.0 - - - - - - -
18/09:00am 17.8 NNE 16 22 1004.2 - 0.0 - - - - - - -
18/08:30am 17.7 NNE 14 21 1004.3 - 0.0 - - - - - - -
18/08:00am 17.1 NNE 18 22 1004.5 - 0.0 - - - - - - -
18/07:30am 15.7 NNE 14 21 1004.9 - 0.0 - - - - - - -
18/07:00am 15.8 NNE 15 20 1004.7 - 0.0 - - - - - - -
18/06:30am 15.3 NNE 14 21 1004.9 - 0.0 - - - - - - -
18/06:00am 14.4 NNE 14 20 1004.9 - 0.0 - - - - - - -
18/05:30am 14.1 NNE 12 19 1005.3 - 0.0 - - - - - - -
18/05:00am 14.1 NNE 13 19 1005.3 - 0.0 - - - - - - -
18/04:30am 13.9 NNE 14 19 1005.2 - 0.0 - - - - - - -
18/04:00am 14.0 NNE 14 19 1005.6 - 0.0 - - - - - - -
18/03:30am 14.0 NNE 13 22 1005.7 - 0.0 - - - - - - -
18/03:00am 13.7 NNE 13 19 1005.6 - 0.0 - - - - - - -
18/02:30am 13.6 NNE 14 20 1006.0 - 0.0 - - - - - - -
18/02:00am 13.5 NNE 10 14 1006.7 - 0.0 - - - - - - -
18/01:30am 13.5 NNE 9 11 1007.0 - 0.0 - - - - - - -
18/01:00am 13.5 N 11 13 1007.4 - 0.0 - - - - - - -
18/12:30am 13.0 NNE 10 13 1007.7 - 0.0 - - - - - - -
18/12:00am 13.1 NNE 8 11 1007.8 - 0.0 - - - - - - -
 
Date/Time
EDT
Temp

°C
Wind Pressure Rain
since 9am
mm
Weather Cloud Vis
km
Sea
Height
m
Swell
Dir
 
Speed
knots
Gust
knots
hPa Trend Height
m
Period
s
Dir
17/11:30pm 12.9 NNE 8 11 1008.2 - 0.0 - - - - - - -
17/11:00pm 13.2 WNW 1 5 1008.6 - 0.0 - - - - - - -
17/10:30pm 13.3 WNW 1 4 1008.9 - 0.0 - - - - - - -
17/10:00pm 13.3 WNW 1 4 1008.9 - 0.0 - - - - - - -
17/09:30pm 13.7 W 6 7 1008.8 - 0.0 - - - - - - -
17/09:00pm 13.8 W 6 7 1008.7 - 0.0 - - - - - - -
17/08:30pm 14.6 WSW 9 12 1008.8 - 0.0 - - - - - - -
17/08:00pm 14.9 WSW 13 16 1008.6 - 0.0 - - - - - - -
17/07:30pm 15.6 WSW 14 18 1008.3 - 0.0 - - - - - - -
17/07:00pm 15.9 W 14 18 1008.2 - 0.0 - - - - - - -
17/06:30pm 16.4 W 13 19 1007.9 - 0.0 - - - - - - -
17/06:00pm 16.5 W 14 17 1007.7 - 0.0 - - - - - - -
17/05:30pm 15.5 WSW 16 21 1007.8 - 0.0 - - - - - - -
17/05:00pm 15.7 WSW 17 23 1007.7 - 0.0 - - - - - - -
17/04:30pm 16.8 W 19 24 1008.1 - 0.0 - - - - - - -
17/04:00pm 16.9 W 19 27 1008.2 - 0.0 - - - - - - -
17/03:30pm 16.7 W 20 26 1008.2 - 0.0 - - - - - - -
17/03:00pm 16.2 W 16 25 1008.1 - 0.0 - - - - - - -
17/02:30pm 16.6 W 18 22 1008.3 - 0.0 - - - - - - -
17/02:00pm 16.7 W 19 24 1008.2 - 0.0 - - - - - - -
17/01:30pm 16.6 W 19 25 1008.3 - 0.0 - - - - - - -
17/01:00pm 16.7 W 20 25 1008.1 - 0.0 - - - - - - -
17/12:30pm 16.8 W 16 22 1008.2 - 0.0 - - - - - - -
17/12:00pm 15.7 W 14 21 1008.1 - 0.0 - - - - - - -
17/11:30am 15.3 W 15 22 1007.9 - 0.0 - - - - - - -
17/11:00am 15.5 W 19 25 1007.7 - 0.0 - - - - - - -
17/10:30am 13.8 WSW 24 30 1007.1 - 0.0 - - - - - - -
17/10:00am 14.2 WSW 27 31 1006.8 - 0.0 - - - - - - -
17/09:40am 14.2 W 16 27 1006.8 - 0.0 - - - - - - -
17/09:30am 14.6 W 18 25 1006.8 - 0.0 - - - - - - -
17/09:25am 14.1 W 17 25 1006.7 - 0.0 - - - - - - -
17/09:00am 13.5 WSW 27 31 1006.1 - 3.8 - - - - - - -
17/08:30am 14.0 WSW 22 30 1006.0 - 3.8 - - - - - - -
17/08:22am 14.4 WSW 20 30 1006.1 - 3.8 - - - - - - -
17/08:00am 14.1 WSW 26 34 1005.5 - 3.8 - - - - - - -
17/07:34am 13.7 WSW 25 35 1005.1 - 3.8 - - - - - - -
17/07:30am 13.9 WSW 27 35 1005.0 - 3.8 - - - - - - -
17/07:25am 13.7 WSW 32 35 1004.5 - 3.8 - - - - - - -
17/07:00am 13.8 W 20 31 1004.5 - 3.8 - - - - - - -
17/06:40am 13.8 W 22 32 1004.2 - 3.8 - - - - - - -
17/06:30am 13.3 W 23 31 1003.8 - 3.8 - - - - - - -
17/06:02am 13.4 W 21 31 1003.6 - 3.8 - - - - - - -
17/06:00am 13.3 W 22 31 1003.4 - 3.8 - - - - - - -
17/05:30am 13.2 W 25 35 1002.8 - 3.8 - - - - - - -
17/05:00am 13.1 W 25 35 1002.6 - 3.8 - - - - - - -
17/04:38am 13.2 W 24 34 1002.2 - 3.8 - - - - - - -
17/04:30am 12.7 W 29 38 1002.4 - 3.8 - - - - - - -
17/04:12am 13.6 W 24 34 1002.2 - 3.8 - - - - - - -
17/04:00am 13.5 W 25 33 1002.0 - 3.8 - - - - - - -
17/03:36am 13.6 W 27 37 1001.7 - 3.8 - - - - - - -
17/03:30am 13.5 W 28 37 1001.8 - 3.8 - - - - - - -
17/03:00am 13.7 W 28 39 1001.2 - 3.8 - - - - - - -
17/02:30am 13.8 W 28 38 1000.9 - 3.8 - - - - - - -
17/02:00am 13.8 W 27 38 1000.9 - 3.8 - - - - - - -
17/01:30am 13.8 W 34 49 999.8 - 3.8 - - - - - - -
17/01:21am 14.2 WSW 34 49 999.6 - 3.8 - - - - - - -
17/01:00am 13.9 W 29 39 1000.5 - 3.6 - - - - - - -
17/12:30am 13.9 W 26 38 1000.6 - 3.6 - - - - - - -
17/12:00am 13.7 W 30 41 1000.4 - 3.6 - - - - - - -
 
Date/Time
EDT
Temp

°C
Wind Pressure Rain
since 9am
mm
Weather Cloud Vis
km
Sea
Height
m
Swell
Dir
 
Speed
knots
Gust
knots
hPa Trend Height
m
Period
s
Dir
16/11:30pm 13.6 W 28 41 1000.4 - 3.6 - - - - - - -
16/11:00pm 13.0 W 33 44 999.8 - 3.6 - - - - - - -
16/10:30pm 13.9 W 24 44 1000.5 - 3.4 - - - - - - -
16/10:00pm 13.4 W 31 45 999.9 - 3.4 - - - - - - -
16/09:30pm 14.0 W 30 46 999.5 - 3.4 - - - - - - -
16/09:21pm 14.3 W 34 46 999.0 - 3.4 - - - - - - -
16/09:18pm 14.9 W 22 44 999.0 - 3.4 - - - - - - -
16/09:00pm 14.9 W 35 54 998.1 - 3.4 - - - - - - -
16/08:47pm 15.0 W 30 55 998.4 - 3.4 - - - - - - -
16/08:46pm 15.1 W 31 55 998.1 - 3.4 - - - - - - -
16/08:40pm 15.1 W 42 55 997.2 - 3.4 - - - - - - -
16/08:30pm 15.1 W 30 49 997.7 - 3.4 - - - - - - -
16/08:00pm 14.7 W 29 46 997.3 - 3.4 - - - - - - -
16/07:30pm 14.0 W 27 38 996.5 - 3.4 - - - - - - -
16/07:03pm 13.1 W 25 35 996.1 - 2.2 - - - - - - -
16/07:00pm 13.4 W 28 35 995.9 - 1.4 - - - - - - -
16/06:55pm 14.1 W 17 37 996.8 - 0.8 - - - - - - -
16/06:30pm 14.9 W 31 47 995.1 - 0.0 - - - - - - -
16/06:10pm 15.7 W 27 53 994.9 - 0.0 - - - - - - -
16/06:09pm 15.9 W 25 53 995.0 - 0.0 - - - - - - -
16/06:05pm 15.9 W 40 53 994.3 - 0.0 - - - - - - -
16/06:00pm 16.2 W 19 45 994.9 - 0.0 - - - - - - -
16/05:59pm 16.3 WSW 17 45 995.1 - 0.0 - - - - - - -
16/05:57pm 16.4 W 30 45 995.0 - 0.0 - - - - - - -
16/05:30pm 17.3 W 33 44 992.8 - 0.0 - - - - - - -
16/05:01pm 17.3 W 25 36 993.0 - 0.0 - - - - - - -
16/05:00pm 17.3 W 25 34 993.1 - 0.0 - - - - - - -
16/04:30pm 17.9 W 26 37 991.8 - 0.0 - - - - - - -
16/04:19pm 18.4 W 23 35 991.8 - 0.0 - - - - - - -
16/04:00pm 17.2 W 29 35 991.5 - 0.0 - - - - - - -
16/03:30pm 18.0 W 21 27 991.3 - 0.0 - - - - - - -
16/03:00pm 19.2 W 22 29 992.2 - 0.0 - - - - - - -
16/02:39pm 18.9 W 15 29 991.9 - 0.0 - - - - - - -
16/02:30pm 20.9 S 4 7 992.0 - 0.0 - - - - - - -
16/02:00pm 20.4 W 8 23 991.9 - 0.0 - - - - - - -
16/01:30pm 18.7 W 22 37 992.9 - 0.0 - - - - - - -
16/01:00pm 18.2 W 24 37 993.6 - 0.0 - - - - - - -
16/12:30pm 18.6 W 19 36 993.6 - 0.0 - - - - - - -
16/12:00pm 19.0 WNW 23 39 993.6 - 0.0 - - - - - - -

Other Formats:

Comma delimited format used in spreadsheet applications
http://www.bom.gov.au/fwo/IDT60701/IDT60701.94893.axf

JavaScript Object Notation format (JSON) in row-major order
http://www.bom.gov.au/fwo/IDT60701/IDT60701.94893.json